sensor_id;sensor_type;location;lat;lon;timestamp;temperature;humidity
4058;DHT22;2044;48.692;9.020;2022-11-11T00:00:58;3.10;99.90
4058;DHT22;2044;48.692;9.020;2022-11-11T00:03:26;2.90;99.90
4058;DHT22;2044;48.692;9.020;2022-11-11T00:05:53;3.10;99.90
4058;DHT22;2044;48.692;9.020;2022-11-11T00:08:20;3.00;99.90
4058;DHT22;2044;48.692;9.020;2022-11-11T00:10:47;2.90;99.90
4058;DHT22;2044;48.692;9.020;2022-11-11T00:13:14;2.90;99.90
4058;DHT22;2044;48.692;9.020;2022-11-11T00:15:40;3.00;99.90
4058;DHT22;2044;48.692;9.020;2022-11-11T00:18:09;3.20;99.90
4058;DHT22;2044;48.692;9.020;2022-11-11T00:20:56;3.30;99.90
4058;DHT22;2044;48.692;9.020;2022-11-11T00:23:41;3.50;99.90
4058;DHT22;2044;48.692;9.020;2022-11-11T00:26:26;3.60;99.90
4058;DHT22;2044;48.692;9.020;2022-11-11T00:28:54;3.60;99.90
4058;DHT22;2044;48.692;9.020;2022-11-11T00:31:20;3.50;99.90
4058;DHT22;2044;48.692;9.020;2022-11-11T00:33:47;3.40;99.90
4058;DHT22;2044;48.692;9.020;2022-11-11T00:36:15;3.40;99.90
4058;DHT22;2044;48.692;9.020;2022-11-11T00:38:41;3.50;99.90
4058;DHT22;2044;48.692;9.020;2022-11-11T00:41:11;3.60;99.90
4058;DHT22;2044;48.692;9.020;2022-11-11T00:43:38;3.60;99.90
4058;DHT22;2044;48.692;9.020;2022-11-11T00:46:05;3.60;99.90
4058;DHT22;2044;48.692;9.020;2022-11-11T00:48:49;3.50;99.90
4058;DHT22;2044;48.692;9.020;2022-11-11T00:51:35;3.30;99.90
4058;DHT22;2044;48.692;9.020;2022-11-11T00:54:01;3.00;99.90
4058;DHT22;2044;48.692;9.020;2022-11-11T00:56:28;2.90;99.90
4058;DHT22;2044;48.692;9.020;2022-11-11T00:58:55;2.90;99.90
4058;DHT22;2044;48.692;9.020;2022-11-11T01:01:22;2.60;99.90
4058;DHT22;2044;48.692;9.020;2022-11-11T01:03:48;2.40;99.90
4058;DHT22;2044;48.692;9.020;2022-11-11T01:06:15;2.20;99.90
4058;DHT22;2044;48.692;9.020;2022-11-11T01:08:43;2.30;99.90
4058;DHT22;2044;48.692;9.020;2022-11-11T01:11:12;2.40;99.90
4058;DHT22;2044;48.692;9.020;2022-11-11T01:13:39;2.60;99.90
4058;DHT22;2044;48.692;9.020;2022-11-11T01:16:09;2.80;99.90
4058;DHT22;2044;48.692;9.020;2022-11-11T01:18:36;2.70;99.90
4058;DHT22;2044;48.692;9.020;2022-11-11T01:21:06;2.70;99.90
4058;DHT22;2044;48.692;9.020;2022-11-11T01:23:35;2.60;99.90
4058;DHT22;2044;48.692;9.020;2022-11-11T01:26:05;2.60;99.90
4058;DHT22;2044;48.692;9.020;2022-11-11T01:28:32;2.60;99.90
4058;DHT22;2044;48.692;9.020;2022-11-11T01:31:04;2.50;99.90
4058;DHT22;2044;48.692;9.020;2022-11-11T01:33:31;2.70;99.90
4058;DHT22;2044;48.692;9.020;2022-11-11T01:36:03;2.90;99.90
4058;DHT22;2044;48.692;9.020;2022-11-11T01:38:30;3.00;99.90
4058;DHT22;2044;48.692;9.020;2022-11-11T01:40:57;3.10;99.90
4058;DHT22;2044;48.692;9.020;2022-11-11T01:43:25;3.10;99.90
4058;DHT22;2044;48.692;9.020;2022-11-11T01:45:56;3.10;99.90
4058;DHT22;2044;48.692;9.020;2022-11-11T01:48:30;3.00;99.90
4058;DHT22;2044;48.692;9.020;2022-11-11T01:51:22;3.00;99.90
4058;DHT22;2044;48.692;9.020;2022-11-11T01:53:53;3.30;99.90
4058;DHT22;2044;48.692;9.020;2022-11-11T01:56:23;3.50;99.90
4058;DHT22;2044;48.692;9.020;2022-11-11T01:58:54;3.20;99.90
4058;DHT22;2044;48.692;9.020;2022-11-11T02:01:21;2.80;99.90
4058;DHT22;2044;48.692;9.020;2022-11-11T02:03:49;2.50;99.90
4058;DHT22;2044;48.692;9.020;2022-11-11T02:06:31;2.30;99.90
4058;DHT22;2044;48.692;9.020;2022-11-11T02:08:59;2.20;99.90
4058;DHT22;2044;48.692;9.020;2022-11-11T02:11:27;2.10;99.90
4058;DHT22;2044;48.692;9.020;2022-11-11T02:14:13;2.00;99.90
4058;DHT22;2044;48.692;9.020;2022-11-11T02:16:57;2.10;99.90
4058;DHT22;2044;48.692;9.020;2022-11-11T02:19:34;2.00;99.90
4058;DHT22;2044;48.692;9.020;2022-11-11T02:22:07;1.90;99.90
4058;DHT22;2044;48.692;9.020;2022-11-11T02:24:38;1.80;99.90
4058;DHT22;2044;48.692;9.020;2022-11-11T02:27:09;1.80;99.90
4058;DHT22;2044;48.692;9.020;2022-11-11T02:29:38;1.80;99.90
4058;DHT22;2044;48.692;9.020;2022-11-11T02:32:05;1.70;99.90
4058;DHT22;2044;48.692;9.020;2022-11-11T02:34:33;1.70;99.90
4058;DHT22;2044;48.692;9.020;2022-11-11T02:37:02;1.90;99.90
4058;DHT22;2044;48.692;9.020;2022-11-11T02:39:30;2.10;99.90
4058;DHT22;2044;48.692;9.020;2022-11-11T02:42:00;2.10;99.90
4058;DHT22;2044;48.692;9.020;2022-11-11T02:44:29;1.90;99.90
4058;DHT22;2044;48.692;9.020;2022-11-11T02:46:56;1.80;99.90
4058;DHT22;2044;48.692;9.020;2022-11-11T02:49:22;1.80;99.90
4058;DHT22;2044;48.692;9.020;2022-11-11T02:51:49;1.90;99.90
4058;DHT22;2044;48.692;9.020;2022-11-11T02:54:16;2.20;99.90
4058;DHT22;2044;48.692;9.020;2022-11-11T02:56:43;2.30;99.90
4058;DHT22;2044;48.692;9.020;2022-11-11T02:59:28;2.40;99.90
4058;DHT22;2044;48.692;9.020;2022-11-11T03:01:55;2.50;99.90
4058;DHT22;2044;48.692;9.020;2022-11-11T03:04:21;2.60;99.90
4058;DHT22;2044;48.692;9.020;2022-11-11T03:06:48;2.50;99.90
4058;DHT22;2044;48.692;9.020;2022-11-11T03:09:15;2.20;99.90
4058;DHT22;2044;48.692;9.020;2022-11-11T03:11:42;2.10;99.90
4058;DHT22;2044;48.692;9.020;2022-11-11T03:14:08;2.20;99.90
4058;DHT22;2044;48.692;9.020;2022-11-11T03:16:36;2.30;99.90
4058;DHT22;2044;48.692;9.020;2022-11-11T03:19:21;2.30;99.90
4058;DHT22;2044;48.692;9.020;2022-11-11T03:21:48;2.50;99.90
4058;DHT22;2044;48.692;9.020;2022-11-11T03:24:14;2.60;99.90
4058;DHT22;2044;48.692;9.020;2022-11-11T03:26:41;2.70;99.90
4058;DHT22;2044;48.692;9.020;2022-11-11T03:29:07;2.70;99.90
4058;DHT22;2044;48.692;9.020;2022-11-11T03:31:34;2.80;99.90
4058;DHT22;2044;48.692;9.020;2022-11-11T03:34:03;2.60;99.90
4058;DHT22;2044;48.692;9.020;2022-11-11T03:36:43;2.30;99.90
4058;DHT22;2044;48.692;9.020;2022-11-11T03:39:27;2.00;99.90
4058;DHT22;2044;48.692;9.020;2022-11-11T03:41:54;1.80;99.90
4058;DHT22;2044;48.692;9.020;2022-11-11T03:44:21;2.00;99.90
4058;DHT22;2044;48.692;9.020;2022-11-11T03:46:48;2.10;99.90
4058;DHT22;2044;48.692;9.020;2022-11-11T03:49:16;2.10;99.90
4058;DHT22;2044;48.692;9.020;2022-11-11T03:51:43;1.90;99.90
4058;DHT22;2044;48.692;9.020;2022-11-11T03:54:09;1.80;99.90
4058;DHT22;2044;48.692;9.020;2022-11-11T03:56:36;1.80;99.90
4058;DHT22;2044;48.692;9.020;2022-11-11T03:59:03;1.70;99.90
4058;DHT22;2044;48.692;9.020;2022-11-11T04:01:30;1.80;99.90
4058;DHT22;2044;48.692;9.020;2022-11-11T04:04:15;1.70;99.90
4058;DHT22;2044;48.692;9.020;2022-11-11T04:06:59;1.70;99.90
4058;DHT22;2044;48.692;9.020;2022-11-11T04:09:40;1.60;99.90
4058;DHT22;2044;48.692;9.020;2022-11-11T04:12:26;1.60;99.90
4058;DHT22;2044;48.692;9.020;2022-11-11T04:14:53;1.60;99.90
4058;DHT22;2044;48.692;9.020;2022-11-11T04:17:38;1.50;99.90
4058;DHT22;2044;48.692;9.020;2022-11-11T04:20:07;1.70;99.90
4058;DHT22;2044;48.692;9.020;2022-11-11T04:22:52;2.00;99.90
4058;DHT22;2044;48.692;9.020;2022-11-11T04:25:19;2.20;99.90
4058;DHT22;2044;48.692;9.020;2022-11-11T04:28:02;2.00;99.90
4058;DHT22;2044;48.692;9.020;2022-11-11T04:30:43;1.90;99.90
4058;DHT22;2044;48.692;9.020;2022-11-11T04:33:10;1.90;99.90
4058;DHT22;2044;48.692;9.020;2022-11-11T04:35:39;2.10;99.90
4058;DHT22;2044;48.692;9.020;2022-11-11T04:38:07;2.30;99.90
4058;DHT22;2044;48.692;9.020;2022-11-11T04:40:47;2.30;99.90
4058;DHT22;2044;48.692;9.020;2022-11-11T04:43:29;2.30;99.90
4058;DHT22;2044;48.692;9.020;2022-11-11T04:45:57;2.30;99.90
4058;DHT22;2044;48.692;9.020;2022-11-11T04:48:23;2.30;99.90
4058;DHT22;2044;48.692;9.020;2022-11-11T04:50:51;2.10;99.90
4058;DHT22;2044;48.692;9.020;2022-11-11T04:53:18;2.20;99.90
4058;DHT22;2044;48.692;9.020;2022-11-11T04:55:45;2.30;99.90
4058;DHT22;2044;48.692;9.020;2022-11-11T04:58:33;2.40;99.90
4058;DHT22;2044;48.692;9.020;2022-11-11T05:01:00;2.40;99.90
4058;DHT22;2044;48.692;9.020;2022-11-11T05:03:27;2.00;99.90
4058;DHT22;2044;48.692;9.020;2022-11-11T05:05:55;1.80;99.90
4058;DHT22;2044;48.692;9.020;2022-11-11T05:08:41;1.70;99.90
4058;DHT22;2044;48.692;9.020;2022-11-11T05:11:25;1.60;99.90
4058;DHT22;2044;48.692;9.020;2022-11-11T05:13:53;1.50;99.90
4058;DHT22;2044;48.692;9.020;2022-11-11T05:16:41;1.50;99.90
4058;DHT22;2044;48.692;9.020;2022-11-11T05:19:26;1.50;99.90
4058;DHT22;2044;48.692;9.020;2022-11-11T05:22:15;1.60;99.90
4058;DHT22;2044;48.692;9.020;2022-11-11T05:24:42;1.50;99.90
4058;DHT22;2044;48.692;9.020;2022-11-11T05:27:26;1.60;99.90
4058;DHT22;2044;48.692;9.020;2022-11-11T05:29:53;1.80;99.90
4058;DHT22;2044;48.692;9.020;2022-11-11T05:32:21;1.40;99.90
4058;DHT22;2044;48.692;9.020;2022-11-11T05:34:48;1.40;99.90
4058;DHT22;2044;48.692;9.020;2022-11-11T05:37:16;1.30;99.90
4058;DHT22;2044;48.692;9.020;2022-11-11T05:39:43;1.50;99.90
4058;DHT22;2044;48.692;9.020;2022-11-11T05:42:11;1.80;99.90
4058;DHT22;2044;48.692;9.020;2022-11-11T05:44:37;1.90;99.90
4058;DHT22;2044;48.692;9.020;2022-11-11T05:47:05;1.90;99.90
4058;DHT22;2044;48.692;9.020;2022-11-11T05:49:31;1.90;99.90
4058;DHT22;2044;48.692;9.020;2022-11-11T05:51:58;2.10;99.90
4058;DHT22;2044;48.692;9.020;2022-11-11T05:54:26;2.00;99.90
4058;DHT22;2044;48.692;9.020;2022-11-11T05:56:53;2.00;99.90
4058;DHT22;2044;48.692;9.020;2022-11-11T05:59:20;2.00;99.90
4058;DHT22;2044;48.692;9.020;2022-11-11T06:01:47;2.00;99.90
4058;DHT22;2044;48.692;9.020;2022-11-11T06:04:14;2.10;99.90
4058;DHT22;2044;48.692;9.020;2022-11-11T06:06:40;2.10;99.90
4058;DHT22;2044;48.692;9.020;2022-11-11T06:09:07;2.20;99.90
4058;DHT22;2044;48.692;9.020;2022-11-11T06:11:35;2.30;99.90
4058;DHT22;2044;48.692;9.020;2022-11-11T06:14:02;2.40;99.90
4058;DHT22;2044;48.692;9.020;2022-11-11T06:16:28;2.20;99.90
4058;DHT22;2044;48.692;9.020;2022-11-11T06:18:55;2.10;99.90
4058;DHT22;2044;48.692;9.020;2022-11-11T06:21:23;2.00;99.90
4058;DHT22;2044;48.692;9.020;2022-11-11T06:23:50;2.10;99.90
4058;DHT22;2044;48.692;9.020;2022-11-11T06:26:17;2.00;99.90
4058;DHT22;2044;48.692;9.020;2022-11-11T06:28:46;2.10;99.90
4058;DHT22;2044;48.692;9.020;2022-11-11T06:31:15;2.20;99.90
4058;DHT22;2044;48.692;9.020;2022-11-11T06:33:41;2.20;99.90
4058;DHT22;2044;48.692;9.020;2022-11-11T06:36:10;2.10;99.90
4058;DHT22;2044;48.692;9.020;2022-11-11T06:38:38;2.10;99.90
4058;DHT22;2044;48.692;9.020;2022-11-11T06:41:04;2.00;99.90
4058;DHT22;2044;48.692;9.020;2022-11-11T06:43:31;2.00;99.90
4058;DHT22;2044;48.692;9.020;2022-11-11T06:45:59;2.10;99.90
4058;DHT22;2044;48.692;9.020;2022-11-11T06:48:27;2.10;99.90
4058;DHT22;2044;48.692;9.020;2022-11-11T06:50:59;2.10;99.90
4058;DHT22;2044;48.692;9.020;2022-11-11T06:53:26;2.20;99.90
4058;DHT22;2044;48.692;9.020;2022-11-11T06:55:54;2.40;99.90
4058;DHT22;2044;48.692;9.020;2022-11-11T06:58:21;2.60;99.90
4058;DHT22;2044;48.692;9.020;2022-11-11T07:00:48;2.80;99.90
4058;DHT22;2044;48.692;9.020;2022-11-11T07:03:18;2.80;99.90
4058;DHT22;2044;48.692;9.020;2022-11-11T07:05:46;3.00;99.90
4058;DHT22;2044;48.692;9.020;2022-11-11T07:08:14;3.00;99.90
4058;DHT22;2044;48.692;9.020;2022-11-11T07:10:43;3.10;99.90
4058;DHT22;2044;48.692;9.020;2022-11-11T07:13:10;3.20;99.90
4058;DHT22;2044;48.692;9.020;2022-11-11T07:15:37;3.30;99.90
4058;DHT22;2044;48.692;9.020;2022-11-11T07:18:04;3.40;99.90
4058;DHT22;2044;48.692;9.020;2022-11-11T07:20:33;3.40;99.90
4058;DHT22;2044;48.692;9.020;2022-11-11T07:22:59;3.60;99.90
4058;DHT22;2044;48.692;9.020;2022-11-11T07:25:26;3.80;99.90
4058;DHT22;2044;48.692;9.020;2022-11-11T07:27:53;4.00;99.90
4058;DHT22;2044;48.692;9.020;2022-11-11T07:30:20;4.20;99.90
4058;DHT22;2044;48.692;9.020;2022-11-11T07:32:47;4.50;99.90
4058;DHT22;2044;48.692;9.020;2022-11-11T07:35:15;4.90;99.90
4058;DHT22;2044;48.692;9.020;2022-11-11T07:37:44;5.20;99.90
4058;DHT22;2044;48.692;9.020;2022-11-11T07:40:12;5.10;99.90
4058;DHT22;2044;48.692;9.020;2022-11-11T07:42:40;4.70;99.90
4058;DHT22;2044;48.692;9.020;2022-11-11T07:45:08;4.80;99.90
4058;DHT22;2044;48.692;9.020;2022-11-11T07:47:36;5.00;99.90
4058;DHT22;2044;48.692;9.020;2022-11-11T07:50:04;5.40;99.90
4058;DHT22;2044;48.692;9.020;2022-11-11T07:52:31;6.00;99.90
4058;DHT22;2044;48.692;9.020;2022-11-11T07:54:59;6.10;99.90
4058;DHT22;2044;48.692;9.020;2022-11-11T07:57:26;6.20;99.90
4058;DHT22;2044;48.692;9.020;2022-11-11T07:59:52;6.40;99.90
4058;DHT22;2044;48.692;9.020;2022-11-11T08:02:19;6.30;99.90
4058;DHT22;2044;48.692;9.020;2022-11-11T08:04:46;6.20;99.90
4058;DHT22;2044;48.692;9.020;2022-11-11T08:07:13;5.70;99.90
4058;DHT22;2044;48.692;9.020;2022-11-11T08:09:39;5.70;99.90
4058;DHT22;2044;48.692;9.020;2022-11-11T08:12:08;6.20;99.90
4058;DHT22;2044;48.692;9.020;2022-11-11T08:14:52;7.20;1.00
4058;DHT22;2044;48.692;9.020;2022-11-11T08:17:19;8.10;1.00
4058;DHT22;2044;48.692;9.020;2022-11-11T08:19:46;8.40;1.00
4058;DHT22;2044;48.692;9.020;2022-11-11T08:22:12;8.80;1.00
4058;DHT22;2044;48.692;9.020;2022-11-11T08:24:39;8.80;1.00
4058;DHT22;2044;48.692;9.020;2022-11-11T08:27:07;9.00;1.00
4058;DHT22;2044;48.692;9.020;2022-11-11T08:29:35;9.50;1.00
4058;DHT22;2044;48.692;9.020;2022-11-11T08:32:02;9.30;1.00
4058;DHT22;2044;48.692;9.020;2022-11-11T08:34:29;9.60;1.00
4058;DHT22;2044;48.692;9.020;2022-11-11T08:36:57;8.60;1.00
4058;DHT22;2044;48.692;9.020;2022-11-11T08:39:23;7.90;1.00
4058;DHT22;2044;48.692;9.020;2022-11-11T08:41:50;8.00;1.00
4058;DHT22;2044;48.692;9.020;2022-11-11T08:44:18;8.20;1.00
4058;DHT22;2044;48.692;9.020;2022-11-11T08:46:45;8.50;20.40
4058;DHT22;2044;48.692;9.020;2022-11-11T08:49:12;8.40;90.50
4058;DHT22;2044;48.692;9.020;2022-11-11T08:51:38;8.50;99.90
4058;DHT22;2044;48.692;9.020;2022-11-11T08:56:32;8.50;62.70
4058;DHT22;2044;48.692;9.020;2022-11-11T08:58:59;8.70;15.50
4058;DHT22;2044;48.692;9.020;2022-11-11T09:01:27;9.10;4.40
4058;DHT22;2044;48.692;9.020;2022-11-11T09:03:54;9.80;17.30
4058;DHT22;2044;48.692;9.020;2022-11-11T09:06:20;10.50;38.60
4058;DHT22;2044;48.692;9.020;2022-11-11T09:08:47;10.80;1.00
4058;DHT22;2044;48.692;9.020;2022-11-11T09:11:14;11.30;1.00
4058;DHT22;2044;48.692;9.020;2022-11-11T09:13:41;11.40;1.00
4058;DHT22;2044;48.692;9.020;2022-11-11T09:16:08;11.90;99.90
4058;DHT22;2044;48.692;9.020;2022-11-11T09:18:36;12.20;99.90
4058;DHT22;2044;48.692;9.020;2022-11-11T09:21:03;12.50;29.60
4058;DHT22;2044;48.692;9.020;2022-11-11T09:23:30;13.60;99.90
4058;DHT22;2044;48.692;9.020;2022-11-11T09:25:59;14.50;1.00
4058;DHT22;2044;48.692;9.020;2022-11-11T09:28:28;15.40;1.00
4058;DHT22;2044;48.692;9.020;2022-11-11T09:30:57;16.40;6.50
4058;DHT22;2044;48.692;9.020;2022-11-11T09:33:24;17.40;1.00
4058;DHT22;2044;48.692;9.020;2022-11-11T09:35:52;18.00;99.90
4058;DHT22;2044;48.692;9.020;2022-11-11T09:38:19;18.10;1.00
4058;DHT22;2044;48.692;9.020;2022-11-11T09:40:56;16.50;1.00
4058;DHT22;2044;48.692;9.020;2022-11-11T09:43:34;14.90;1.00
4058;DHT22;2044;48.692;9.020;2022-11-11T09:46:12;15.00;1.00
4058;DHT22;2044;48.692;9.020;2022-11-11T09:48:49;15.10;1.00
4058;DHT22;2044;48.692;9.020;2022-11-11T09:51:23;15.70;99.90
4058;DHT22;2044;48.692;9.020;2022-11-11T09:53:55;15.50;99.90
4058;DHT22;2044;48.692;9.020;2022-11-11T09:56:25;15.30;7.80
4058;DHT22;2044;48.692;9.020;2022-11-11T09:58:57;14.50;99.90
4058;DHT22;2044;48.692;9.020;2022-11-11T10:01:28;14.40;99.90
4058;DHT22;2044;48.692;9.020;2022-11-11T10:04:01;14.30;1.00
4058;DHT22;2044;48.692;9.020;2022-11-11T10:06:33;14.30;1.00
4058;DHT22;2044;48.692;9.020;2022-11-11T10:09:06;14.10;1.00
4058;DHT22;2044;48.692;9.020;2022-11-11T10:11:42;14.70;1.00
4058;DHT22;2044;48.692;9.020;2022-11-11T10:14:13;14.90;99.90
4058;DHT22;2044;48.692;9.020;2022-11-11T10:16:47;15.60;1.00
4058;DHT22;2044;48.692;9.020;2022-11-11T10:19:28;14.90;1.00
4058;DHT22;2044;48.692;9.020;2022-11-11T10:21:59;14.50;99.90
4058;DHT22;2044;48.692;9.020;2022-11-11T10:24:29;13.90;99.90
4058;DHT22;2044;48.692;9.020;2022-11-11T10:27:01;13.50;1.00
4058;DHT22;2044;48.692;9.020;2022-11-11T10:29:34;14.00;99.90
4058;DHT22;2044;48.692;9.020;2022-11-11T10:32:09;14.20;45.20
4058;DHT22;2044;48.692;9.020;2022-11-11T10:34:36;13.70;31.60
4058;DHT22;2044;48.692;9.020;2022-11-11T10:37:16;13.70;1.00
4058;DHT22;2044;48.692;9.020;2022-11-11T10:39:57;13.90;99.90
4058;DHT22;2044;48.692;9.020;2022-11-11T10:42:25;14.10;60.60
4058;DHT22;2044;48.692;9.020;2022-11-11T10:44:55;14.10;84.20
4058;DHT22;2044;48.692;9.020;2022-11-11T10:47:32;14.00;99.90
4058;DHT22;2044;48.692;9.020;2022-11-11T10:50:06;14.30;39.40
4058;DHT22;2044;48.692;9.020;2022-11-11T10:52:40;14.90;1.00
4058;DHT22;2044;48.692;9.020;2022-11-11T10:55:13;15.40;1.00
4058;DHT22;2044;48.692;9.020;2022-11-11T10:57:46;15.50;1.00
4058;DHT22;2044;48.692;9.020;2022-11-11T11:00:16;16.90;1.00
4058;DHT22;2044;48.692;9.020;2022-11-11T11:02:47;18.10;1.00
4058;DHT22;2044;48.692;9.020;2022-11-11T11:05:18;19.10;1.00
4058;DHT22;2044;48.692;9.020;2022-11-11T11:07:50;20.20;99.90
4058;DHT22;2044;48.692;9.020;2022-11-11T11:10:22;20.50;99.90
4058;DHT22;2044;48.692;9.020;2022-11-11T11:12:52;19.20;99.90
4058;DHT22;2044;48.692;9.020;2022-11-11T11:15:22;18.70;99.90
4058;DHT22;2044;48.692;9.020;2022-11-11T11:17:53;17.60;99.90
4058;DHT22;2044;48.692;9.020;2022-11-11T11:20:22;16.30;1.00
4058;DHT22;2044;48.692;9.020;2022-11-11T11:22:51;16.70;1.00
4058;DHT22;2044;48.692;9.020;2022-11-11T11:25:21;16.70;1.00
4058;DHT22;2044;48.692;9.020;2022-11-11T11:27:50;16.10;1.00
4058;DHT22;2044;48.692;9.020;2022-11-11T11:30:20;16.00;1.00
4058;DHT22;2044;48.692;9.020;2022-11-11T11:32:57;16.00;1.00
4058;DHT22;2044;48.692;9.020;2022-11-11T11:35:35;15.70;1.00
4058;DHT22;2044;48.692;9.020;2022-11-11T11:38:05;16.00;99.90
4058;DHT22;2044;48.692;9.020;2022-11-11T11:40:47;15.80;1.00
4058;DHT22;2044;48.692;9.020;2022-11-11T11:43:25;15.40;73.80
4058;DHT22;2044;48.692;9.020;2022-11-11T11:45:54;14.70;99.90
4058;DHT22;2044;48.692;9.020;2022-11-11T11:48:32;14.70;99.90
4058;DHT22;2044;48.692;9.020;2022-11-11T11:51:09;14.60;99.90
4058;DHT22;2044;48.692;9.020;2022-11-11T11:53:47;14.60;99.90
4058;DHT22;2044;48.692;9.020;2022-11-11T11:56:19;14.70;99.90
4058;DHT22;2044;48.692;9.020;2022-11-11T11:59:01;14.80;99.90
4058;DHT22;2044;48.692;9.020;2022-11-11T12:01:36;14.40;99.90
4058;DHT22;2044;48.692;9.020;2022-11-11T12:04:41;14.20;97.00
4058;DHT22;2044;48.692;9.020;2022-11-11T12:07:18;14.40;98.30
4058;DHT22;2044;48.692;9.020;2022-11-11T12:09:57;14.80;1.00
4058;DHT22;2044;48.692;9.020;2022-11-11T12:12:34;15.30;1.00
4058;DHT22;2044;48.692;9.020;2022-11-11T12:15:14;15.30;1.00
4058;DHT22;2044;48.692;9.020;2022-11-11T12:17:49;15.40;1.00
4058;DHT22;2044;48.692;9.020;2022-11-11T12:20:23;15.80;1.00
4058;DHT22;2044;48.692;9.020;2022-11-11T12:22:59;15.80;1.00
4058;DHT22;2044;48.692;9.020;2022-11-11T12:25:38;15.80;1.00
4058;DHT22;2044;48.692;9.020;2022-11-11T12:28:14;15.90;1.00
4058;DHT22;2044;48.692;9.020;2022-11-11T12:30:48;16.10;1.00
4058;DHT22;2044;48.692;9.020;2022-11-11T12:33:42;16.40;1.00
4058;DHT22;2044;48.692;9.020;2022-11-11T12:36:18;16.50;1.00
4058;DHT22;2044;48.692;9.020;2022-11-11T12:38:49;15.90;1.00
4058;DHT22;2044;48.692;9.020;2022-11-11T12:41:26;16.50;1.00
4058;DHT22;2044;48.692;9.020;2022-11-11T12:44:02;16.80;1.00
4058;DHT22;2044;48.692;9.020;2022-11-11T12:46:38;16.80;1.00
4058;DHT22;2044;48.692;9.020;2022-11-11T12:49:22;16.80;1.00
4058;DHT22;2044;48.692;9.020;2022-11-11T12:51:56;17.10;1.00
4058;DHT22;2044;48.692;9.020;2022-11-11T12:54:30;17.70;1.00
4058;DHT22;2044;48.692;9.020;2022-11-11T12:57:09;17.80;1.00
4058;DHT22;2044;48.692;9.020;2022-11-11T12:59:56;17.50;1.00
4058;DHT22;2044;48.692;9.020;2022-11-11T13:02:40;16.80;1.00
4058;DHT22;2044;48.692;9.020;2022-11-11T13:05:14;16.80;1.00
4058;DHT22;2044;48.692;9.020;2022-11-11T13:08:04;16.90;1.00
4058;DHT22;2044;48.692;9.020;2022-11-11T13:10:40;16.90;1.00
4058;DHT22;2044;48.692;9.020;2022-11-11T13:13:24;17.40;1.00
4058;DHT22;2044;48.692;9.020;2022-11-11T13:15:54;17.20;1.00
4058;DHT22;2044;48.692;9.020;2022-11-11T13:18:25;16.90;1.00
4058;DHT22;2044;48.692;9.020;2022-11-11T13:20:57;16.80;1.00
4058;DHT22;2044;48.692;9.020;2022-11-11T13:23:25;16.60;1.00
4058;DHT22;2044;48.692;9.020;2022-11-11T13:25:55;16.80;1.00
4058;DHT22;2044;48.692;9.020;2022-11-11T13:28:28;16.90;1.00
4058;DHT22;2044;48.692;9.020;2022-11-11T13:31:02;16.90;1.00
4058;DHT22;2044;48.692;9.020;2022-11-11T13:33:37;16.70;1.00
4058;DHT22;2044;48.692;9.020;2022-11-11T13:36:06;16.40;1.00
4058;DHT22;2044;48.692;9.020;2022-11-11T13:38:35;16.20;1.00
4058;DHT22;2044;48.692;9.020;2022-11-11T13:41:05;16.20;1.00
4058;DHT22;2044;48.692;9.020;2022-11-11T13:43:39;15.60;1.00
4058;DHT22;2044;48.692;9.020;2022-11-11T13:46:25;15.60;1.00
4058;DHT22;2044;48.692;9.020;2022-11-11T13:48:55;15.80;1.00
4058;DHT22;2044;48.692;9.020;2022-11-11T13:51:25;16.00;1.00
4058;DHT22;2044;48.692;9.020;2022-11-11T13:53:53;15.70;1.00
4058;DHT22;2044;48.692;9.020;2022-11-11T13:56:23;15.70;1.00
4058;DHT22;2044;48.692;9.020;2022-11-11T13:58:53;15.80;1.00
4058;DHT22;2044;48.692;9.020;2022-11-11T14:01:21;15.90;1.00
4058;DHT22;2044;48.692;9.020;2022-11-11T14:04:05;16.40;1.00
4058;DHT22;2044;48.692;9.020;2022-11-11T14:06:56;16.50;1.00
4058;DHT22;2044;48.692;9.020;2022-11-11T14:09:55;16.10;1.00
4058;DHT22;2044;48.692;9.020;2022-11-11T14:12:33;16.20;1.00
4058;DHT22;2044;48.692;9.020;2022-11-11T14:15:02;16.00;1.00
4058;DHT22;2044;48.692;9.020;2022-11-11T14:17:33;15.90;1.00
4058;DHT22;2044;48.692;9.020;2022-11-11T14:20:34;16.30;1.00
4058;DHT22;2044;48.692;9.020;2022-11-11T14:23:21;16.00;1.00
4058;DHT22;2044;48.692;9.020;2022-11-11T14:25:49;15.90;1.00
4058;DHT22;2044;48.692;9.020;2022-11-11T14:28:21;15.80;1.00
4058;DHT22;2044;48.692;9.020;2022-11-11T14:30:50;16.00;1.00
4058;DHT22;2044;48.692;9.020;2022-11-11T14:33:23;15.70;1.00
4058;DHT22;2044;48.692;9.020;2022-11-11T14:35:57;15.70;1.00
4058;DHT22;2044;48.692;9.020;2022-11-11T14:38:33;15.20;1.00
4058;DHT22;2044;48.692;9.020;2022-11-11T14:41:41;14.90;1.00
4058;DHT22;2044;48.692;9.020;2022-11-11T14:44:40;14.60;35.30
4058;DHT22;2044;48.692;9.020;2022-11-11T14:47:30;14.40;99.90
4058;DHT22;2044;48.692;9.020;2022-11-11T14:49:57;14.30;99.90
4058;DHT22;2044;48.692;9.020;2022-11-11T14:52:29;14.10;1.00
4058;DHT22;2044;48.692;9.020;2022-11-11T14:55:09;14.10;1.00
4058;DHT22;2044;48.692;9.020;2022-11-11T14:57:38;13.90;99.90
4058;DHT22;2044;48.692;9.020;2022-11-11T15:00:11;13.80;1.00
4058;DHT22;2044;48.692;9.020;2022-11-11T15:02:45;13.70;99.90
4058;DHT22;2044;48.692;9.020;2022-11-11T15:05:17;13.70;99.90
4058;DHT22;2044;48.692;9.020;2022-11-11T15:08:06;13.50;1.00
4058;DHT22;2044;48.692;9.020;2022-11-11T15:10:48;13.30;1.00
4058;DHT22;2044;48.692;9.020;2022-11-11T15:16:20;12.70;1.00
4058;DHT22;2044;48.692;9.020;2022-11-11T15:19:02;12.50;35.10
4058;DHT22;2044;48.692;9.020;2022-11-11T15:21:34;12.40;97.60
4058;DHT22;2044;48.692;9.020;2022-11-11T15:24:10;12.20;1.00
4058;DHT22;2044;48.692;9.020;2022-11-11T15:26:45;12.10;1.00
4058;DHT22;2044;48.692;9.020;2022-11-11T15:29:33;11.90;1.00
4058;DHT22;2044;48.692;9.020;2022-11-11T15:32:11;11.60;99.90
4058;DHT22;2044;48.692;9.020;2022-11-11T15:34:48;11.50;1.00
4058;DHT22;2044;48.692;9.020;2022-11-11T15:37:18;11.40;17.80
4058;DHT22;2044;48.692;9.020;2022-11-11T15:39:48;11.30;99.90
4058;DHT22;2044;48.692;9.020;2022-11-11T15:42:23;11.10;99.90
4058;DHT22;2044;48.692;9.020;2022-11-11T15:44:51;11.10;99.90
4058;DHT22;2044;48.692;9.020;2022-11-11T15:47:19;10.90;99.90
4058;DHT22;2044;48.692;9.020;2022-11-11T15:49:48;10.70;99.90
4058;DHT22;2044;48.692;9.020;2022-11-11T15:52:25;10.50;99.90
4058;DHT22;2044;48.692;9.020;2022-11-11T15:54:53;10.40;99.90
4058;DHT22;2044;48.692;9.020;2022-11-11T15:57:25;10.40;99.90
4058;DHT22;2044;48.692;9.020;2022-11-11T15:59:53;10.40;99.90
4058;DHT22;2044;48.692;9.020;2022-11-11T16:02:22;10.30;99.90
4058;DHT22;2044;48.692;9.020;2022-11-11T16:04:53;10.30;99.90
4058;DHT22;2044;48.692;9.020;2022-11-11T16:07:23;10.20;99.90
4058;DHT22;2044;48.692;9.020;2022-11-11T16:09:50;10.10;1.00
4058;DHT22;2044;48.692;9.020;2022-11-11T16:12:21;10.00;1.00
4058;DHT22;2044;48.692;9.020;2022-11-11T16:14:51;9.90;1.00
4058;DHT22;2044;48.692;9.020;2022-11-11T16:17:19;9.80;1.00
4058;DHT22;2044;48.692;9.020;2022-11-11T16:19:48;9.80;14.00
4058;DHT22;2044;48.692;9.020;2022-11-11T16:22:20;9.70;77.20
4058;DHT22;2044;48.692;9.020;2022-11-11T16:24:49;9.60;99.90
4058;DHT22;2044;48.692;9.020;2022-11-11T16:27:18;9.50;99.90
4058;DHT22;2044;48.692;9.020;2022-11-11T16:29:45;9.30;99.90
4058;DHT22;2044;48.692;9.020;2022-11-11T16:32:32;8.90;99.90
4058;DHT22;2044;48.692;9.020;2022-11-11T16:35:00;8.50;99.90
4058;DHT22;2044;48.692;9.020;2022-11-11T16:37:28;8.30;99.90
4058;DHT22;2044;48.692;9.020;2022-11-11T16:39:55;8.10;99.90
4058;DHT22;2044;48.692;9.020;2022-11-11T16:42:23;7.80;1.00
4058;DHT22;2044;48.692;9.020;2022-11-11T16:44:54;7.80;99.90
4058;DHT22;2044;48.692;9.020;2022-11-11T16:47:41;7.60;99.90
4058;DHT22;2044;48.692;9.020;2022-11-11T16:50:10;7.70;1.00
4058;DHT22;2044;48.692;9.020;2022-11-11T16:52:42;7.80;1.00